createdAt,value
2018-01-16T00:00:33.073Z,91.33
2018-01-16T00:01:33.092Z,91.85
2018-01-16T00:02:33.103Z,91.89
2018-01-16T00:03:33.119Z,91.33
2018-01-16T00:04:33.130Z,91.14
2018-01-16T00:05:33.144Z,91.04
2018-01-16T00:06:33.161Z,90.66
2018-01-16T00:07:33.172Z,89.72
2018-01-16T00:08:33.185Z,89.90
2018-01-16T00:09:33.196Z,89.90
2018-01-16T00:10:33.217Z,90.38
2018-01-16T00:11:33.227Z,90.66
2018-01-16T00:12:33.245Z,90.76
2018-01-16T00:13:33.253Z,91.04
2018-01-16T00:14:33.276Z,90.66
2018-01-16T00:15:33.283Z,89.90
2018-01-16T00:16:33.300Z,90.19
2018-01-16T00:17:33.306Z,90.28
2018-01-16T00:18:33.327Z,90.76
2018-01-16T00:19:33.342Z,90.00
2018-01-16T00:20:33.351Z,90.00
2018-01-16T00:21:33.368Z,89.43
2018-01-16T00:22:33.379Z,89.81
2018-01-16T00:23:33.390Z,90.28
2018-01-16T00:24:33.410Z,90.38
2018-01-16T00:25:33.421Z,90.66
2018-01-16T00:26:33.434Z,91.14
2018-01-16T00:27:33.453Z,91.14
2018-01-16T00:28:33.466Z,90.76
2018-01-16T00:29:33.475Z,90.57
2018-01-16T00:30:33.489Z,90.66
2018-01-16T00:31:33.504Z,90.66
2018-01-16T00:32:33.518Z,90.28
2018-01-16T00:33:33.533Z,90.09
2018-01-16T00:34:33.550Z,90.47
2018-01-16T00:35:33.565Z,90.95
2018-01-16T00:36:33.575Z,91.04
2018-01-16T00:37:33.587Z,90.95
2018-01-16T00:38:33.604Z,90.85
2018-01-16T00:39:33.618Z,91.04
2018-01-16T00:40:33.630Z,90.95
2018-01-16T00:41:33.645Z,91.24
2018-01-16T00:42:33.658Z,90.57
2018-01-16T00:43:33.679Z,90.85
2018-01-16T00:44:33.685Z,91.24
2018-01-16T00:45:33.700Z,90.66
2018-01-16T00:46:33.721Z,90.09
2018-01-16T00:47:33.910Z,90.09
2018-01-16T00:48:33.742Z,90.09
2018-01-16T00:49:33.755Z,89.72
2018-01-16T00:50:33.779Z,90.00
2018-01-16T00:51:33.789Z,89.81
2018-01-16T00:52:33.799Z,89.43
2018-01-16T00:53:33.813Z,89.72
2018-01-16T00:54:33.830Z,89.90
2018-01-16T00:55:33.848Z,89.72
2018-01-16T00:56:33.857Z,90.09
2018-01-16T00:57:33.870Z,89.90
2018-01-16T00:58:33.886Z,90.09
2018-01-16T00:59:33.898Z,90.09
2018-01-16T01:00:33.910Z,90.00
2018-01-16T01:01:33.932Z,90.19
2018-01-16T01:02:33.945Z,89.72
2018-01-16T01:03:33.952Z,89.90
2018-01-16T01:04:33.970Z,89.90
2018-01-16T01:05:33.978Z,90.09
2018-01-16T01:06:33.994Z,90.38
2018-01-16T01:07:34.011Z,89.72
2018-01-16T01:08:34.034Z,89.33
2018-01-16T01:09:34.039Z,88.90
2018-01-16T01:10:34.053Z,88.67
2018-01-16T01:11:34.066Z,89.90
2018-01-16T01:12:34.083Z,90.66
2018-01-16T01:13:34.098Z,90.09
2018-01-16T01:14:34.108Z,90.28
2018-01-16T01:15:34.122Z,89.90
2018-01-16T01:16:34.140Z,90.28
2018-01-16T01:17:34.149Z,90.28
2018-01-16T01:18:34.164Z,90.38
2018-01-16T01:19:34.179Z,90.28
2018-01-16T01:20:34.193Z,90.76
2018-01-16T01:21:34.205Z,90.76
2018-01-16T01:22:34.225Z,89.72
2018-01-16T01:23:34.234Z,89.90
2018-01-16T01:24:34.251Z,90.76
2018-01-16T01:25:34.259Z,90.66
2018-01-16T01:26:34.280Z,89.81
2018-01-16T01:27:34.289Z,90.28
2018-01-16T01:28:34.307Z,90.66
2018-01-16T01:29:34.318Z,90.66
2018-01-16T01:30:34.335Z,90.95
2018-01-16T01:31:34.354Z,90.76
2018-01-16T01:32:34.361Z,90.76
2018-01-16T01:33:34.374Z,90.95
2018-01-16T01:34:34.392Z,90.95
2018-01-16T01:35:34.404Z,90.85
2018-01-16T01:36:34.417Z,90.76
2018-01-16T01:37:34.431Z,90.28
2018-01-16T01:38:34.446Z,90.09
2018-01-16T01:39:34.467Z,90.47
2018-01-16T01:40:34.491Z,89.62
2018-01-16T01:41:34.489Z,90.38
2018-01-16T01:42:34.508Z,91.42
2018-01-16T01:43:34.519Z,90.85
2018-01-16T01:44:34.530Z,90.76
2018-01-16T01:45:34.544Z,90.52
2018-01-16T01:46:34.556Z,90.47
2018-01-16T01:47:34.573Z,90.42
2018-01-16T01:48:34.588Z,90.38
2018-01-16T01:49:34.599Z,91.33
2018-01-16T01:50:34.615Z,91.14
2018-01-16T01:51:34.632Z,91.14
2018-01-16T01:52:34.651Z,91.04
2018-01-16T01:53:34.658Z,90.85
2018-01-16T01:54:34.670Z,91.14
2018-01-16T01:55:34.686Z,91.42
2018-01-16T01:56:34.703Z,91.14
2018-01-16T01:57:34.714Z,91.52
2018-01-16T01:58:34.726Z,91.61
2018-01-16T01:59:34.742Z,91.52
2018-01-16T02:00:34.756Z,91.33
2018-01-16T02:01:34.783Z,91.14
2018-01-16T02:02:34.785Z,91.04
2018-01-16T02:03:34.798Z,91.71
2018-01-16T02:04:34.818Z,92.09
2018-01-16T02:05:34.826Z,91.99
2018-01-16T02:06:34.840Z,91.52
2018-01-16T02:07:34.857Z,91.42
2018-01-16T02:08:34.871Z,91.99
2018-01-16T02:09:34.890Z,91.89
2018-01-16T02:10:34.898Z,91.80
2018-01-16T02:11:34.915Z,92.09
2018-01-16T02:12:34.927Z,91.99
2018-01-16T02:13:34.940Z,91.80
2018-01-16T02:14:34.957Z,92.09
2018-01-16T02:15:34.969Z,91.89
2018-01-16T02:16:34.985Z,92.09
2018-01-16T02:17:34.997Z,92.09
2018-01-16T02:18:35.012Z,91.89
2018-01-16T02:19:35.027Z,91.80
2018-01-16T02:20:35.041Z,91.94
2018-01-16T02:21:35.196Z,91.66
2018-01-16T02:22:35.070Z,92.09
2018-01-16T02:23:35.082Z,91.94
2018-01-16T02:24:35.097Z,92.18
2018-01-16T02:25:35.114Z,92.47
2018-01-16T02:26:35.124Z,93.23
2018-01-16T02:27:35.142Z,92.94
2018-01-16T02:28:35.170Z,93.32
2018-01-16T02:29:35.168Z,93.23
2018-01-16T02:30:35.183Z,92.99
2018-01-16T02:31:35.196Z,92.42
2018-01-16T02:32:35.212Z,92.66
2018-01-16T02:33:35.226Z,92.99
2018-01-16T02:34:35.238Z,93.04
2018-01-16T02:35:35.258Z,93.23
2018-01-16T02:36:35.269Z,93.60
2018-01-16T02:37:35.283Z,93.23
2018-01-16T02:38:35.300Z,93.89
2018-01-16T02:39:35.313Z,94.74
2018-01-16T02:40:35.325Z,94.27
2018-01-16T02:41:35.342Z,93.75
2018-01-16T02:42:35.353Z,94.08
2018-01-16T02:43:35.372Z,93.27
2018-01-16T02:44:35.385Z,93.04
2018-01-16T02:45:35.393Z,93.80
2018-01-16T02:46:35.411Z,93.23
2018-01-16T02:47:35.427Z,93.41
2018-01-16T02:48:35.441Z,93.13
2018-01-16T02:49:35.457Z,93.13
2018-01-16T02:50:35.469Z,93.18
2018-01-16T02:51:35.480Z,93.23
2018-01-16T02:52:35.502Z,92.99
2018-01-16T02:53:35.518Z,92.42
2018-01-16T02:54:35.528Z,91.75
2018-01-16T02:55:35.542Z,91.94
2018-01-16T02:56:35.554Z,92.56
2018-01-16T02:57:35.566Z,92.61
2018-01-16T02:58:35.582Z,92.71
2018-01-16T02:59:35.596Z,92.71
2018-01-16T03:00:35.610Z,92.42
2018-01-16T03:01:35.637Z,92.80
2018-01-16T03:02:35.639Z,92.32
2018-01-16T03:03:35.652Z,91.28
2018-01-16T03:04:35.668Z,91.47
2018-01-16T03:05:35.681Z,92.04
2018-01-16T03:06:35.704Z,92.04
2018-01-16T03:07:35.711Z,92.71
2018-01-16T03:08:35.729Z,92.18
2018-01-16T03:09:35.736Z,91.89
2018-01-16T03:10:35.753Z,91.71
2018-01-16T03:11:35.767Z,91.89
2018-01-16T03:12:35.781Z,92.09
2018-01-16T03:13:35.797Z,91.42
2018-01-16T03:14:35.811Z,90.80
2018-01-16T03:15:35.825Z,91.19
2018-01-16T03:16:35.838Z,91.28
2018-01-16T03:17:35.852Z,91.09
2018-01-16T03:18:35.864Z,91.28
2018-01-16T03:19:35.881Z,91.19
2018-01-16T03:20:35.901Z,90.71
2018-01-16T03:21:35.910Z,91.38
2018-01-16T03:22:35.924Z,91.28
2018-01-16T03:23:35.940Z,90.95
2018-01-16T03:24:35.951Z,90.90
2018-01-16T03:25:35.967Z,90.80
2018-01-16T03:26:35.978Z,90.71
2018-01-16T03:27:35.995Z,90.14
2018-01-16T03:28:36.010Z,90.05
2018-01-16T03:29:36.022Z,90.71
2018-01-16T03:30:36.039Z,90.61
2018-01-16T03:31:36.058Z,90.61
2018-01-16T03:32:36.066Z,90.71
2018-01-16T03:33:36.082Z,90.33
2018-01-16T03:34:36.091Z,90.42
2018-01-16T03:35:36.109Z,89.67
2018-01-16T03:36:36.127Z,89.57
2018-01-16T03:37:36.138Z,89.86
2018-01-16T03:38:36.150Z,90.14
2018-01-16T03:39:36.162Z,90.23
2018-01-16T03:40:36.178Z,89.67
2018-01-16T03:41:36.190Z,90.05
2018-01-16T03:42:36.211Z,89.95
2018-01-16T03:43:36.219Z,89.95
2018-01-16T03:44:36.236Z,89.95
2018-01-16T03:45:36.248Z,89.09
2018-01-16T03:46:36.262Z,89.47
2018-01-16T03:47:36.281Z,89.86
2018-01-16T03:48:36.291Z,89.28
2018-01-16T03:49:36.307Z,89.00
2018-01-16T03:50:36.321Z,89.19
2018-01-16T03:51:36.336Z,89.38
2018-01-16T03:52:36.349Z,89.47
2018-01-16T03:53:36.365Z,89.95
2018-01-16T03:54:36.381Z,89.76
2018-01-16T03:55:36.393Z,90.05
2018-01-16T03:56:36.406Z,90.14
2018-01-16T03:57:36.420Z,89.95
2018-01-16T03:58:36.445Z,90.28
2018-01-16T03:59:36.448Z,90.76
2018-01-16T04:00:36.463Z,90.57
2018-01-16T04:01:36.487Z,90.76
2018-01-16T04:02:36.494Z,90.85
2018-01-16T04:03:36.504Z,90.76
2018-01-16T04:04:36.519Z,90.47
2018-01-16T04:05:36.532Z,90.47
2018-01-16T04:06:36.550Z,90.38
2018-01-16T04:07:36.567Z,89.81
2018-01-16T04:08:36.579Z,89.95
2018-01-16T04:09:36.590Z,89.95
2018-01-16T04:10:36.602Z,89.57
2018-01-16T04:11:36.618Z,89.47
2018-01-16T04:12:36.634Z,89.86
2018-01-16T04:13:36.653Z,89.28
2018-01-16T04:14:36.663Z,89.47
2018-01-16T04:15:36.677Z,89.19
2018-01-16T04:16:36.699Z,88.53
2018-01-16T04:17:36.707Z,88.62
2018-01-16T04:18:36.720Z,88.90
2018-01-16T04:19:36.731Z,88.34
2018-01-16T04:20:36.749Z,88.90
2018-01-16T04:21:36.765Z,89.00
2018-01-16T04:22:36.780Z,88.81
2018-01-16T04:23:36.790Z,89.00
2018-01-16T04:24:36.804Z,88.62
2018-01-16T04:25:36.819Z,88.90
2018-01-16T04:26:36.837Z,88.62
2018-01-16T04:27:36.849Z,88.62
2018-01-16T04:28:36.863Z,88.90
2018-01-16T04:29:36.873Z,89.00
2018-01-16T04:30:36.909Z,88.81
2018-01-16T04:31:36.907Z,88.90
2018-01-16T04:32:36.920Z,88.34
2018-01-16T04:33:36.932Z,89.00
2018-01-16T04:34:36.961Z,88.43
2018-01-16T04:35:36.966Z,88.62
2018-01-16T04:36:36.979Z,88.15
2018-01-16T04:37:36.989Z,88.34
2018-01-16T04:38:37.006Z,88.15
2018-01-16T04:39:37.020Z,87.95
2018-01-16T04:40:37.035Z,88.05
2018-01-16T04:41:37.049Z,87.43
2018-01-16T04:42:37.064Z,87.90
2018-01-16T04:43:37.078Z,87.38
2018-01-16T04:44:37.100Z,88.00
2018-01-16T04:45:37.105Z,87.43
2018-01-16T04:46:37.121Z,87.95
2018-01-16T04:47:37.139Z,87.95
2018-01-16T04:48:37.150Z,87.52
2018-01-16T04:49:37.164Z,87.76
2018-01-16T04:50:37.179Z,88.62
2018-01-16T04:51:37.193Z,88.24
2018-01-16T04:52:37.210Z,87.95
2018-01-16T04:53:37.226Z,87.38
2018-01-16T04:54:37.235Z,87.43
2018-01-16T04:55:37.322Z,87.52
2018-01-16T04:56:37.269Z,88.05
2018-01-16T04:57:37.291Z,88.62
2018-01-16T04:58:37.294Z,88.28
2018-01-16T04:59:37.310Z,88.09
2018-01-16T05:00:37.326Z,87.90
2018-01-16T05:01:37.365Z,87.62
2018-01-16T05:02:37.359Z,87.43
2018-01-16T05:03:37.372Z,87.14
2018-01-16T05:04:37.385Z,86.91
2018-01-16T05:05:37.401Z,86.82
2018-01-16T05:06:37.414Z,87.19
2018-01-16T05:07:37.431Z,87.38
2018-01-16T05:08:37.444Z,88.24
2018-01-16T05:09:37.457Z,88.43
2018-01-16T05:10:37.472Z,88.34
2018-01-16T05:11:37.484Z,87.76
2018-01-16T05:12:37.504Z,87.86
2018-01-16T05:13:37.518Z,88.34
2018-01-16T05:14:37.535Z,88.05
2018-01-16T05:15:37.544Z,88.15
2018-01-16T05:16:37.562Z,87.86
2018-01-16T05:17:37.588Z,88.05
2018-01-16T05:18:37.588Z,87.29
2018-01-16T05:19:37.605Z,87.67
2018-01-16T05:20:37.620Z,87.01
2018-01-16T05:21:37.630Z,87.19
2018-01-16T05:22:37.644Z,86.72
2018-01-16T05:23:37.658Z,86.63
2018-01-16T05:24:37.679Z,86.53
2018-01-16T05:25:37.688Z,86.53
2018-01-16T05:26:37.704Z,86.05
2018-01-16T05:27:37.724Z,85.62
2018-01-16T05:28:37.733Z,85.77
2018-01-16T05:29:37.749Z,85.68
2018-01-16T05:30:37.766Z,86.43
2018-01-16T05:31:37.776Z,87.19
2018-01-16T05:32:37.797Z,87.48
2018-01-16T05:33:37.821Z,87.53
2018-01-16T05:34:37.823Z,87.34
2018-01-16T05:35:37.837Z,87.62
2018-01-16T05:36:37.848Z,87.01
2018-01-16T05:37:37.864Z,86.72
2018-01-16T05:38:37.877Z,86.43
2018-01-16T05:39:37.892Z,85.77
2018-01-16T05:40:37.909Z,86.43
2018-01-16T05:41:37.921Z,87.29
2018-01-16T05:42:37.937Z,87.19
2018-01-16T05:43:37.952Z,87.01
2018-01-16T05:44:37.964Z,86.53
2018-01-16T05:45:37.982Z,86.43
2018-01-16T05:46:37.993Z,86.24
2018-01-16T05:47:38.010Z,87.24
2018-01-16T05:48:38.023Z,87.24
2018-01-16T05:49:38.035Z,87.24
2018-01-16T05:50:38.051Z,87.62
2018-01-16T05:51:38.064Z,87.43
2018-01-16T05:52:38.079Z,86.77
2018-01-16T05:53:38.092Z,87.24
2018-01-16T05:54:38.105Z,87.91
2018-01-16T05:55:38.122Z,87.43
2018-01-16T05:56:38.135Z,87.76
2018-01-16T05:57:38.156Z,88.01
2018-01-16T05:58:38.165Z,87.72
2018-01-16T05:59:38.176Z,88.01
2018-01-16T06:00:38.191Z,88.10
2018-01-16T06:01:38.206Z,88.10
2018-01-16T06:02:38.222Z,88.20
2018-01-16T06:03:38.235Z,88.20
2018-01-16T06:04:38.253Z,88.39
2018-01-16T06:05:38.284Z,88.57
2018-01-16T06:06:38.277Z,88.29
2018-01-16T06:07:38.294Z,88.57
2018-01-16T06:08:38.307Z,89.33
2018-01-16T06:09:38.321Z,89.72
2018-01-16T06:10:38.337Z,90.19
2018-01-16T06:11:38.353Z,89.90
2018-01-16T06:12:38.368Z,90.09
2018-01-16T06:13:38.376Z,89.72
2018-01-16T06:14:38.391Z,90.00
2018-01-16T06:15:38.406Z,89.72
2018-01-16T06:16:38.421Z,90.00
2018-01-16T06:17:38.435Z,89.81
2018-01-16T06:18:38.527Z,89.72
2018-01-16T06:19:38.461Z,90.09
2018-01-16T06:20:38.475Z,90.09
2018-01-16T06:21:38.488Z,90.00
2018-01-16T06:22:38.505Z,90.09
2018-01-16T06:23:38.521Z,90.28
2018-01-16T06:24:38.531Z,89.90
2018-01-16T06:25:38.544Z,90.09
2018-01-16T06:26:38.560Z,90.00
2018-01-16T06:27:38.575Z,89.90
2018-01-16T06:28:38.588Z,89.81
2018-01-16T06:29:38.600Z,89.43
2018-01-16T06:30:38.616Z,89.14
2018-01-16T06:31:38.633Z,89.72
2018-01-16T06:32:38.649Z,89.72
2018-01-16T06:33:38.674Z,90.85
2018-01-16T06:34:38.675Z,90.76
2018-01-16T06:35:38.690Z,90.66
2018-01-16T06:36:38.698Z,90.85
2018-01-16T06:37:38.718Z,90.28
2018-01-16T06:38:38.729Z,90.47
2018-01-16T06:39:38.742Z,90.85
2018-01-16T06:40:38.756Z,91.33
2018-01-16T06:41:38.771Z,90.66
2018-01-16T06:42:38.786Z,90.66
2018-01-16T06:43:38.805Z,90.66
2018-01-16T06:44:38.811Z,90.57
2018-01-16T06:45:38.829Z,90.76
2018-01-16T06:46:38.842Z,90.66
2018-01-16T06:47:38.862Z,90.76
2018-01-16T06:48:38.871Z,90.38
2018-01-16T06:49:38.882Z,90.28
2018-01-16T06:50:38.896Z,90.28
2018-01-16T06:51:38.914Z,90.09
2018-01-16T06:52:38.923Z,90.85
2018-01-16T06:53:38.940Z,90.66
2018-01-16T06:54:38.953Z,90.66
2018-01-16T06:55:38.969Z,90.76
2018-01-16T06:56:38.982Z,90.19
2018-01-16T06:57:38.998Z,90.38
2018-01-16T06:58:39.012Z,89.72
2018-01-16T06:59:39.025Z,89.90
2018-01-16T07:00:39.038Z,89.72
2018-01-16T07:01:39.055Z,89.62
2018-01-16T07:02:39.066Z,90.09
2018-01-16T07:03:39.082Z,89.72
2018-01-16T07:04:39.097Z,89.24
2018-01-16T07:05:39.108Z,89.24
2018-01-16T07:06:39.123Z,89.72
2018-01-16T07:07:39.140Z,90.00
2018-01-16T07:08:39.153Z,89.81
2018-01-16T07:09:39.169Z,89.81
2018-01-16T07:10:39.179Z,90.19
2018-01-16T07:11:39.197Z,89.72
2018-01-16T07:12:39.210Z,89.57
2018-01-16T07:13:39.224Z,89.00
2018-01-16T07:14:39.240Z,88.86
2018-01-16T07:15:39.250Z,89.53
2018-01-16T07:16:39.269Z,89.38
2018-01-16T07:17:39.287Z,88.86
2018-01-16T07:18:39.299Z,89.38
2018-01-16T07:19:39.311Z,89.00
2018-01-16T07:20:39.321Z,88.90
2018-01-16T07:21:39.338Z,88.53
2018-01-16T07:22:39.349Z,88.81
2018-01-16T07:23:39.365Z,88.90
2018-01-16T07:24:39.380Z,88.43
2018-01-16T07:25:39.390Z,88.71
2018-01-16T07:26:39.407Z,88.62
2018-01-16T07:27:39.423Z,88.34
2018-01-16T07:28:39.435Z,88.71
2018-01-16T07:29:39.451Z,88.71
2018-01-16T07:30:39.461Z,88.15
2018-01-16T07:31:39.478Z,88.81
2018-01-16T07:32:39.495Z,88.53
2018-01-16T07:33:39.506Z,88.71
2018-01-16T07:34:39.521Z,88.43
2018-01-16T07:35:39.535Z,88.43
2018-01-16T07:36:39.548Z,88.76
2018-01-16T07:37:39.565Z,88.86
2018-01-16T07:38:39.578Z,88.81
2018-01-16T07:39:39.591Z,88.95
2018-01-16T07:40:39.606Z,88.34
2018-01-16T07:41:39.619Z,88.62
2018-01-16T07:42:39.635Z,89.00
2018-01-16T07:43:39.653Z,88.43
2018-01-16T07:44:39.664Z,88.81
2018-01-16T07:45:39.678Z,88.15
2018-01-16T07:46:39.694Z,87.57
2018-01-16T07:47:39.711Z,87.38
2018-01-16T07:48:39.726Z,87.10
2018-01-16T07:49:39.736Z,86.91
2018-01-16T07:50:39.749Z,86.82
2018-01-16T07:51:39.762Z,86.34
2018-01-16T07:52:39.788Z,87.01
2018-01-16T07:53:39.801Z,87.82
2018-01-16T07:54:39.817Z,87.76
2018-01-16T07:55:39.822Z,87.86
2018-01-16T07:56:39.835Z,87.67
2018-01-16T07:57:39.850Z,88.34
2018-01-16T07:58:39.863Z,88.20
2018-01-16T07:59:39.877Z,88.24
2018-01-16T08:00:39.905Z,88.05
2018-01-16T08:01:39.913Z,88.05
2018-01-16T08:02:39.922Z,88.01
2018-01-16T08:03:39.935Z,88.57
2018-01-16T08:04:39.950Z,88.48
2018-01-16T08:05:39.965Z,88.67
2018-01-16T08:06:39.978Z,89.43
2018-01-16T08:07:39.997Z,89.62
2018-01-16T08:08:40.010Z,88.95
2018-01-16T08:09:40.023Z,88.39
2018-01-16T08:10:40.039Z,88.39
2018-01-16T08:11:40.050Z,88.67
2018-01-16T08:12:40.063Z,87.82
2018-01-16T08:13:40.078Z,87.82
2018-01-16T08:14:40.096Z,88.76
2018-01-16T08:15:40.107Z,88.24
2018-01-16T08:16:40.125Z,87.48
2018-01-16T08:17:40.140Z,87.38
2018-01-16T08:18:40.152Z,88.01
2018-01-16T08:19:40.165Z,88.01
2018-01-16T08:20:40.185Z,88.20
2018-01-16T08:21:40.195Z,88.34
2018-01-16T08:22:40.208Z,88.15
2018-01-16T08:23:40.222Z,88.62
2018-01-16T08:24:40.251Z,88.24
2018-01-16T08:25:40.252Z,87.95
2018-01-16T08:26:40.265Z,88.05
2018-01-16T08:27:40.279Z,87.95
2018-01-16T08:28:40.294Z,87.86
2018-01-16T08:29:40.312Z,87.48
2018-01-16T08:30:40.322Z,87.01
2018-01-16T08:31:40.339Z,87.48
2018-01-16T08:32:40.359Z,87.01
2018-01-16T08:33:40.368Z,86.53
2018-01-16T08:34:40.392Z,86.24
2018-01-16T08:35:40.400Z,87.10
2018-01-16T08:36:40.414Z,87.10
2018-01-16T08:37:40.428Z,87.01
2018-01-16T08:38:40.440Z,86.72
2018-01-16T08:39:40.457Z,86.63
2018-01-16T08:40:40.473Z,86.15
2018-01-16T08:41:40.481Z,86.53
2018-01-16T08:42:40.500Z,87.01
2018-01-16T08:43:40.517Z,87.91
2018-01-16T08:44:40.529Z,88.34
2018-01-16T08:45:40.542Z,87.57
2018-01-16T08:46:40.554Z,87.95
2018-01-16T08:47:40.569Z,87.57
2018-01-16T08:48:40.588Z,87.48
2018-01-16T08:49:40.598Z,87.67
2018-01-16T08:50:40.613Z,87.29
2018-01-16T08:51:40.632Z,87.01
2018-01-16T08:52:40.647Z,87.38
2018-01-16T08:53:40.655Z,87.48
2018-01-16T08:54:40.676Z,87.48
2018-01-16T08:55:40.699Z,87.29
2018-01-16T08:56:40.699Z,87.48
2018-01-16T08:57:40.716Z,87.76
2018-01-16T08:58:40.731Z,87.48
2018-01-16T08:59:40.746Z,87.48
2018-01-16T09:00:40.760Z,87.67
2018-01-16T09:01:40.775Z,87.29
2018-01-16T09:02:40.787Z,87.01
2018-01-16T09:03:40.798Z,87.10
2018-01-16T09:04:40.816Z,87.29
2018-01-16T09:05:40.830Z,86.34
2018-01-16T09:06:40.842Z,87.01
2018-01-16T09:07:40.859Z,87.38
2018-01-16T09:08:40.874Z,86.53
2018-01-16T09:09:40.888Z,87.01
2018-01-16T09:10:40.902Z,87.48
2018-01-16T09:11:40.921Z,87.29
2018-01-16T09:12:40.931Z,87.01
2018-01-16T09:13:40.947Z,86.72
2018-01-16T09:14:40.969Z,86.82
2018-01-16T09:15:40.977Z,86.72
2018-01-16T09:16:40.992Z,87.19
2018-01-16T09:17:41.003Z,87.01
2018-01-16T09:18:41.020Z,87.01
2018-01-16T09:19:41.043Z,87.29
2018-01-16T09:20:41.054Z,86.43
2018-01-16T09:21:41.062Z,85.72
2018-01-16T09:22:41.089Z,85.15
2018-01-16T09:23:41.095Z,85.15
2018-01-16T09:24:41.109Z,85.58
2018-01-16T09:25:41.122Z,85.49
2018-01-16T09:26:41.135Z,85.68
2018-01-16T09:27:41.152Z,85.91
2018-01-16T09:28:41.168Z,85.34
2018-01-16T09:29:41.179Z,85.24
2018-01-16T09:30:41.196Z,85.43
2018-01-16T09:31:41.209Z,85.43
2018-01-16T09:32:41.224Z,85.24
2018-01-16T09:33:41.240Z,85.81
2018-01-16T09:34:41.251Z,85.62
2018-01-16T09:35:41.271Z,85.05
2018-01-16T09:36:41.287Z,85.34
2018-01-16T09:37:41.298Z,84.77
2018-01-16T09:38:41.315Z,84.86
2018-01-16T09:39:41.336Z,84.86
2018-01-16T09:40:41.345Z,83.91
2018-01-16T09:41:41.370Z,84.48
2018-01-16T09:42:41.373Z,84.48
2018-01-16T09:43:41.394Z,84.20
2018-01-16T09:44:41.404Z,84.29
2018-01-16T09:45:41.419Z,84.29
2018-01-16T09:46:41.449Z,84.48
2018-01-16T09:47:41.451Z,84.39
2018-01-16T09:48:41.469Z,84.48
2018-01-16T09:49:41.478Z,84.39
2018-01-16T09:50:41.493Z,84.77
2018-01-16T09:51:41.510Z,85.39
2018-01-16T09:52:41.527Z,85.20
2018-01-16T09:53:41.541Z,85.77
2018-01-16T09:54:41.559Z,86.63
2018-01-16T09:55:41.569Z,87.01
2018-01-16T09:56:41.583Z,87.29
2018-01-16T09:57:41.602Z,87.01
2018-01-16T09:58:41.613Z,87.48
2018-01-16T09:59:41.632Z,87.48
2018-01-16T10:00:41.645Z,87.01
2018-01-16T10:01:41.668Z,87.38
2018-01-16T10:02:41.685Z,88.39
2018-01-16T10:03:41.687Z,89.53
2018-01-16T10:04:41.706Z,89.14
2018-01-16T10:05:41.716Z,88.95
2018-01-16T10:06:41.732Z,89.33
2018-01-16T10:07:41.766Z,89.53
2018-01-16T10:08:41.770Z,88.48
2018-01-16T10:09:41.775Z,88.95
2018-01-16T10:10:41.789Z,89.24
2018-01-16T10:11:41.804Z,89.33
2018-01-16T10:12:41.821Z,89.81
2018-01-16T10:13:41.831Z,89.62
2018-01-16T10:14:41.853Z,89.33
2018-01-16T10:15:41.862Z,88.81
2018-01-16T10:16:41.876Z,88.91
2018-01-16T10:17:41.890Z,89.39
2018-01-16T10:18:41.904Z,88.67
2018-01-16T10:19:41.919Z,88.72
2018-01-16T10:20:41.939Z,88.62
2018-01-16T10:21:41.958Z,88.91
2018-01-16T10:22:41.963Z,89.39
2018-01-16T10:23:41.979Z,89.86
2018-01-16T10:24:41.996Z,90.05
2018-01-16T10:25:42.005Z,89.76
2018-01-16T10:26:42.018Z,89.67
2018-01-16T10:27:42.031Z,89.95
2018-01-16T10:28:42.045Z,90.05
2018-01-16T10:29:42.060Z,89.95
2018-01-16T10:30:42.074Z,90.62
2018-01-16T10:31:42.088Z,90.62
2018-01-16T10:32:42.105Z,89.86
2018-01-16T10:33:42.120Z,89.48
2018-01-16T10:34:42.130Z,90.05
2018-01-16T10:35:42.143Z,89.67
2018-01-16T10:36:42.164Z,89.29
2018-01-16T10:37:42.177Z,89.58
2018-01-16T10:38:42.192Z,89.86
2018-01-16T10:39:42.199Z,90.52
2018-01-16T10:40:42.215Z,90.05
2018-01-16T10:41:42.244Z,90.24
2018-01-16T10:42:42.243Z,90.24
2018-01-16T10:43:42.272Z,89.48
2018-01-16T10:44:42.269Z,89.58
2018-01-16T10:45:42.286Z,90.05
2018-01-16T10:46:42.299Z,89.58
2018-01-16T10:47:42.349Z,90.24
2018-01-16T10:48:42.328Z,90.43
2018-01-16T10:49:42.339Z,90.43
2018-01-16T10:50:42.355Z,90.05
2018-01-16T10:51:42.369Z,89.86
2018-01-16T10:52:42.384Z,89.39
2018-01-16T10:53:42.395Z,88.53
2018-01-16T10:54:42.416Z,88.62
2018-01-16T10:55:42.437Z,88.72
2018-01-16T10:56:42.482Z,89.14
2018-01-16T10:57:42.450Z,88.76
2018-01-16T10:58:42.483Z,88.91
2018-01-16T10:59:42.484Z,89.05
2018-01-16T11:00:42.494Z,88.29
2018-01-16T11:01:42.508Z,88.67
2018-01-16T11:02:42.520Z,89.00
2018-01-16T11:03:42.537Z,88.95
2018-01-16T11:04:42.552Z,88.76
2018-01-16T11:05:42.567Z,88.95
2018-01-16T11:06:42.582Z,89.24
2018-01-16T11:07:42.594Z,89.58
2018-01-16T11:08:42.615Z,89.86
2018-01-16T11:09:42.628Z,89.39
2018-01-16T11:10:42.636Z,89.67
2018-01-16T11:11:42.658Z,89.53
2018-01-16T11:12:42.663Z,89.53
2018-01-16T11:13:42.678Z,88.76
2018-01-16T11:14:42.697Z,89.43
2018-01-16T11:15:42.704Z,89.24
2018-01-16T11:16:42.719Z,88.67
2018-01-16T11:17:42.738Z,88.86
2018-01-16T11:18:42.748Z,88.76
2018-01-16T11:19:42.764Z,88.20
2018-01-16T11:20:42.776Z,88.01
2018-01-16T11:21:42.788Z,87.53
2018-01-16T11:22:42.814Z,88.10
2018-01-16T11:23:42.819Z,88.01
2018-01-16T11:24:42.834Z,88.01
2018-01-16T11:25:42.846Z,88.39
2018-01-16T11:26:42.862Z,88.81
2018-01-16T11:27:42.873Z,89.20
2018-01-16T11:28:42.890Z,89.58
2018-01-16T11:29:42.907Z,89.81
2018-01-16T11:30:42.918Z,90.19
2018-01-16T11:31:42.933Z,90.67
2018-01-16T11:32:42.947Z,90.57
2018-01-16T11:33:42.958Z,90.38
2018-01-16T11:34:42.976Z,90.38
2018-01-16T11:35:42.992Z,91.24
2018-01-16T11:36:43.003Z,90.95
2018-01-16T11:37:43.018Z,90.48
2018-01-16T11:38:43.036Z,90.57
2018-01-16T11:39:43.047Z,89.81
2018-01-16T11:40:43.061Z,88.77
2018-01-16T11:41:43.071Z,89.34
2018-01-16T11:42:43.091Z,89.81
2018-01-16T11:43:43.109Z,90.05
2018-01-16T11:44:43.114Z,89.62
2018-01-16T11:45:43.127Z,89.81
2018-01-16T11:46:43.147Z,89.34
2018-01-16T11:47:43.159Z,89.43
2018-01-16T11:48:43.170Z,89.81
2018-01-16T11:49:43.181Z,90.19
2018-01-16T11:50:43.196Z,90.15
2018-01-16T11:51:43.214Z,91.05
2018-01-16T11:52:43.231Z,90.38
2018-01-16T11:53:43.239Z,89.62
2018-01-16T11:54:43.250Z,89.53
2018-01-16T11:55:43.269Z,89.43
2018-01-16T11:56:43.286Z,89.72
2018-01-16T11:57:43.296Z,89.72
2018-01-16T11:58:43.312Z,89.72
2018-01-16T11:59:43.320Z,89.72
2018-01-16T12:00:43.336Z,89.81
2018-01-16T12:01:43.344Z,89.53
2018-01-16T12:02:43.363Z,90.00
2018-01-16T12:03:43.381Z,89.53
2018-01-16T12:04:43.390Z,90.19
2018-01-16T12:05:43.410Z,89.72
2018-01-16T12:06:43.413Z,89.53
2018-01-16T12:07:43.427Z,90.19
2018-01-16T12:08:43.454Z,90.29
2018-01-16T12:09:43.460Z,89.91
2018-01-16T12:10:43.474Z,89.25
2018-01-16T12:11:43.490Z,88.96
2018-01-16T12:12:43.501Z,89.15
2018-01-16T12:13:43.512Z,88.96
2018-01-16T12:14:43.526Z,89.06
2018-01-16T12:15:43.548Z,89.62
2018-01-16T12:16:43.554Z,90.19
2018-01-16T12:17:43.577Z,90.76
2018-01-16T12:18:43.583Z,91.05
2018-01-16T12:19:43.595Z,91.14
2018-01-16T12:20:43.623Z,91.09
2018-01-16T12:21:43.618Z,91.24
2018-01-16T12:22:43.637Z,90.86
2018-01-16T12:23:43.650Z,91.05
2018-01-16T12:24:43.668Z,90.91
2018-01-16T12:25:43.680Z,91.05
2018-01-16T12:26:43.690Z,90.95
2018-01-16T12:27:43.701Z,90.67
2018-01-16T12:28:43.723Z,90.48
2018-01-16T12:29:43.728Z,90.19
2018-01-16T12:30:43.744Z,91.14
2018-01-16T12:31:43.758Z,90.67
2018-01-16T12:32:43.769Z,90.57
2018-01-16T12:33:43.787Z,90.57
2018-01-16T12:34:43.798Z,90.67
2018-01-16T12:35:43.811Z,91.24
2018-01-16T12:36:43.826Z,90.67
2018-01-16T12:37:43.838Z,90.57
2018-01-16T12:38:43.853Z,90.10
2018-01-16T12:39:43.863Z,90.95
2018-01-16T12:40:43.875Z,90.72
2018-01-16T12:41:43.888Z,91.47
2018-01-16T12:42:43.906Z,91.52
2018-01-16T12:43:43.920Z,91.14
2018-01-16T12:44:43.936Z,90.95
2018-01-16T12:45:43.945Z,90.67
2018-01-16T12:46:43.962Z,90.95
2018-01-16T12:47:43.969Z,91.24
2018-01-16T12:48:43.993Z,90.19
2018-01-16T12:49:43.998Z,90.57
2018-01-16T12:50:44.017Z,90.48
2018-01-16T12:51:44.028Z,90.86
2018-01-16T12:52:44.043Z,90.76